Terminal Aerodrome Forecast
Issued by NWS

Home | Current Version | Previous Version | Text Only | Print | Product List | Glossary On
Versions: 1 2 3 4 5 6 7 8 9 10 11 12 13 14 15 16 17 18 19 20 21 22 23 24 25 26 27 28 29 30 31 32 33 34 35 36
000
FTUS41 KBOX 050628 AAA
TAFBAF
TAF AMD
KBAF 050628Z 0506/0606 00000KT 3SM BR SKC
     FM050800 00000KT 6SM BR BKN008
     FM050900 00000KT 6SM BR SCT008
     FM051200 00000KT P6SM SKC
     FM051900 28006KT P6SM FEW250
     FM060200 00000KT P6SM SKC=

USA.gov is the U.S. government's official web portal to all federal, state and local government web resources and services.